Time;durP1;ratioP1;P1;durP2;ratioP2;P2;SDS_P1;SDS_P2;PMS_P1;PMS_P2;Temp;Humidity;BMP_temperature;BMP_pressure;BME280_temperature;BME280_humidity;BME280_pressure;Samples;Min_cycle;Max_cycle;Signal;HPM_P1;HPM_P2
2023/07/20 00:00:23;;;;;;;;;3.75;3.50;;;;;22.61;51.30;101255.31;4981398;28;47202;-84
2023/07/20 00:02:52;;;;;;;;;4.50;4.25;;;;;22.67;51.28;101271.19;4995752;28;46356;-84
2023/07/20 00:05:24;;;;;;;;;5.75;3.50;;;;;22.52;51.51;101250.56;4962702;28;46025;-84
2023/07/20 00:07:51;;;;;;;;;2.25;2.25;;;;;22.47;51.84;101253.63;4992640;28;45182;-84
2023/07/20 00:10:17;;;;;;;;;3.00;3.00;;;;;22.53;51.45;101266.75;4981429;28;45390;-84
2023/07/20 00:12:47;;;;;;;;;3.00;3.00;;;;;22.47;52.12;101252.75;4995529;28;46408;-84
2023/07/20 00:15:13;;;;;;;;;4.25;4.25;;;;;22.58;51.89;101272.72;4987416;28;45293;-84
2023/07/20 00:17:39;;;;;;;;;3.00;2.75;;;;;22.49;52.25;101262.53;4979040;28;45285;-84
2023/07/20 00:20:06;;;;;;;;;3.00;3.00;;;;;22.57;52.13;101276.44;4964541;28;45546;-84
2023/07/20 00:22:31;;;;;;;;;3.75;3.25;;;;;22.57;52.39;101273.72;4992707;28;45919;-84
2023/07/20 00:24:56;;;;;;;;;3.00;3.00;;;;;22.58;52.19;101277.31;5000472;28;45462;-84
2023/07/20 00:27:21;;;;;;;;;3.75;3.75;;;;;22.40;51.90;101249.63;5001452;28;45309;-84
2023/07/20 00:29:47;;;;;;;;;2.25;2.25;;;;;22.52;52.23;101280.47;4986535;28;48718;-84
2023/07/20 00:32:12;;;;;;;;;3.00;2.75;;;;;22.43;52.34;101259.41;4989964;28;55354;-84
2023/07/20 00:34:37;;;;;;;;;5.00;4.00;;;;;22.43;52.53;101279.31;4995584;28;45225;-84
2023/07/20 00:37:03;;;;;;;;;5.25;5.00;;;;;22.26;52.66;101257.91;4983334;28;45322;-84
2023/07/20 00:39:28;;;;;;;;;5.00;3.00;;;;;22.29;52.19;101269.47;4992470;28;45422;-84
2023/07/20 00:41:54;;;;;;;;;5.00;5.00;;;;;22.29;52.49;101276.75;4973286;28;47399;-84
2023/07/20 00:44:19;;;;;;;;;2.25;2.25;;;;;22.22;52.73;101262.72;4982533;28;45748;-84
2023/07/20 00:46:46;;;;;;;;;5.00;5.00;;;;;22.28;53.28;101274.97;4980052;28;45370;-84
2023/07/20 00:49:11;;;;;;;;;4.00;3.00;;;;;22.16;52.92;101269.44;4965076;28;45650;-84
2023/07/20 00:51:37;;;;;;;;;4.00;4.00;;;;;22.19;53.39;101271.09;4996644;28;45986;-84
2023/07/20 00:54:02;;;;;;;;;3.50;3.50;;;;;21.98;53.13;101233.59;5001879;28;45229;-84
2023/07/20 00:56:28;;;;;;;;;4.00;4.00;;;;;22.17;53.20;101270.34;4984025;28;45302;-84
2023/07/20 00:58:54;;;;;;;;;4.00;4.00;;;;;22.18;52.88;101278.34;4982040;28;45217;-84
2023/07/20 01:01:20;;;;;;;;;7.50;4.00;;;;;22.18;53.32;101269.34;4998101;28;46093;-77
2023/07/20 01:03:45;;;;;;;;;5.50;4.25;;;;;22.09;53.50;101260.00;4985031;28;45262;-77
2023/07/20 01:06:37;;;;;;;;;3.75;3.75;;;;;22.15;53.45;101273.16;4967353;28;45218;-77
2023/07/20 01:09:15;;;;;;;;;3.00;3.00;;;;;22.14;53.25;101268.69;4984111;28;45473;-77
2023/07/20 01:11:52;;;;;;;;;5.00;4.00;;;;;21.99;53.58;101248.06;4994714;28;45242;-77
2023/07/20 01:14:18;;;;;;;;;3.00;3.00;;;;;22.10;53.64;101278.06;4985688;28;45277;-77
2023/07/20 01:16:44;;;;;;;;;3.00;3.00;;;;;22.04;53.49;101254.03;4982038;28;45269;-77
2023/07/20 01:19:09;;;;;;;;;3.75;3.25;;;;;22.08;53.68;101266.41;4964143;28;45425;-77
2023/07/20 01:21:48;;;;;;;;;2.25;2.25;;;;;22.07;53.74;101264.69;4969199;28;47793;-77
2023/07/20 01:24:44;;;;;;;;;4.25;4.25;;;;;22.06;53.82;101265.66;4978901;28;45226;-77
2023/07/20 01:27:22;;;;;;;;;5.00;4.25;;;;;22.06;53.90;101262.09;4964221;28;45312;-84
2023/07/20 01:30:07;;;;;;;;;2.25;2.25;;;;;22.02;53.63;101261.44;4986653;28;45997;-84
2023/07/20 01:32:34;;;;;;;;;4.00;3.00;;;;;22.02;54.42;101254.16;4991150;28;45334;-84
2023/07/20 01:35:05;;;;;;;;;2.00;2.00;;;;;22.04;53.85;101261.34;4992713;28;45404;-84
2023/07/20 01:37:31;;;;;;;;;2.00;2.00;;;;;21.98;53.70;101251.75;4973574;28;45377;-84
2023/07/20 01:39:58;;;;;;;;;2.75;2.75;;;;;22.02;54.24;101265.03;4998974;28;45342;-77
2023/07/20 01:42:24;;;;;;;;;3.50;2.00;;;;;22.00;54.46;101256.13;4990211;28;45313;-77
2023/07/20 01:44:53;;;;;;;;;3.25;3.00;;;;;21.95;54.43;101244.72;4987469;28;45335;-77
2023/07/20 01:47:19;;;;;;;;;3.25;3.00;;;;;21.94;54.17;101239.38;5000569;28;45325;-77
2023/07/20 01:49:44;;;;;;;;;3.25;2.00;;;;;21.97;54.07;101245.47;4983185;28;45530;-77
2023/07/20 01:52:10;;;;;;;;;3.00;2.00;;;;;22.02;54.14;101253.28;4971106;28;48443;-77
2023/07/20 01:54:35;;;;;;;;;4.75;3.75;;;;;21.99;54.08;101243.50;4998710;28;47337;-77
2023/07/20 01:57:01;;;;;;;;;3.00;3.00;;;;;21.99;54.76;101245.34;4992013;28;45375;-77
2023/07/20 01:59:26;;;;;;;;;2.75;2.75;;;;;21.99;54.39;101245.34;4963497;28;45643;-77
2023/07/20 02:01:52;;;;;;;;;3.00;3.00;;;;;22.00;54.16;101244.34;4978831;28;46914;-77
2023/07/20 02:04:17;;;;;;;;;2.25;2.25;;;;;21.92;54.44;101230.47;4991571;28;45323;-77
2023/07/20 02:06:43;;;;;;;;;3.00;3.00;;;;;21.97;54.24;101241.91;4982601;28;45329;-76
2023/07/20 02:09:08;;;;;;;;;2.50;2.50;;;;;21.99;54.75;101239.91;4971507;28;45430;-77
2023/07/20 02:11:34;;;;;;;;;2.00;2.00;;;;;21.98;54.70;101246.31;4967671;28;45953;-77
2023/07/20 02:13:59;;;;;;;;;3.50;3.50;;;;;21.97;54.84;101239.16;4980832;28;45309;-77
2023/07/20 02:16:24;;;;;;;;;3.25;3.25;;;;;21.93;54.31;101226.78;4997284;28;45296;-77
2023/07/20 02:18:49;;;;;;;;;4.00;2.75;;;;;21.96;54.19;101230.13;4986900;28;52274;-77
2023/07/20 02:21:15;;;;;;;;;3.25;2.25;;;;;21.88;54.93;101215.38;4990884;28;46440;-77
2023/07/20 02:23:40;;;;;;;;;3.25;3.25;;;;;21.90;54.56;101216.13;4987411;28;45443;-77
2023/07/20 02:26:05;;;;;;;;;3.00;3.00;;;;;21.97;54.43;101237.31;4977300;28;45329;-77
2023/07/20 02:28:31;;;;;;;;;3.75;3.75;;;;;21.94;55.00;101232.09;4991793;28;45284;-77
2023/07/20 02:30:57;;;;;;;;;2.75;1.00;;;;;21.95;54.64;101230.25;4963707;28;48008;-77
2023/07/20 02:33:22;;;;;;;;;3.25;3.25;;;;;21.90;55.29;101225.16;4984759;28;46127;-77
2023/07/20 02:35:47;;;;;;;;;3.50;3.50;;;;;21.92;55.17;101233.16;4998572;28;45490;-77
2023/07/20 02:38:13;;;;;;;;;4.00;4.00;;;;;21.85;55.07;101230.03;4986726;28;45439;-77
2023/07/20 02:40:38;;;;;;;;;2.50;2.50;;;;;21.88;54.92;101240.69;4999678;28;45471;-77
2023/07/20 02:43:03;;;;;;;;;3.00;3.00;;;;;21.76;55.20;101217.13;4981911;28;45330;-77
2023/07/20 02:45:29;;;;;;;;;3.25;3.00;;;;;21.86;54.93;101239.06;4988807;28;45528;-77
2023/07/20 02:47:54;;;;;;;;;4.50;4.00;;;;;21.81;55.22;101232.09;4986617;28;45259;-77
2023/07/20 02:50:20;;;;;;;;;4.00;4.00;;;;;21.78;55.36;101239.63;4982188;28;45333;-77
2023/07/20 02:52:45;;;;;;;;;3.00;3.00;;;;;21.78;55.43;101240.47;4999673;28;45261;-77
2023/07/20 02:55:10;;;;;;;;;5.00;4.00;;;;;21.79;55.39;101246.81;4998591;28;45980;-76
2023/07/20 02:57:37;;;;;;;;;4.00;4.00;;;;;21.73;55.21;101236.34;4998296;28;45320;-77
2023/07/20 03:00:05;;;;;;;;;3.25;3.00;;;;;21.73;55.84;101231.78;4971187;28;48284;-77
2023/07/20 03:02:31;;;;;;;;;3.00;2.75;;;;;21.72;55.57;101231.88;4998916;28;46193;-77
2023/07/20 03:04:57;;;;;;;;;3.25;2.25;;;;;21.69;55.45;101233.00;4994018;28;45941;-77
2023/07/20 03:07:22;;;;;;;;;5.25;3.25;;;;;21.70;55.97;101229.31;4999607;28;45487;-77
2023/07/20 03:09:48;;;;;;;;;5.00;4.00;;;;;21.65;55.54;101236.91;4963072;28;57871;-77
2023/07/20 03:12:13;;;;;;;;;1.00;1.00;;;;;21.68;55.47;101235.81;4972319;28;45259;-77
2023/07/20 03:14:39;;;;;;;;;5.50;3.50;;;;;21.61;55.57;101213.66;4986350;28;45224;-77
2023/07/20 03:17:04;;;;;;;;;3.00;3.00;;;;;21.61;56.15;101219.94;4982079;28;45755;-77
2023/07/20 03:19:30;;;;;;;;;2.25;2.25;;;;;21.56;56.09;101219.41;4980260;28;46050;-77
2023/07/20 03:21:55;;;;;;;;;4.25;2.50;;;;;21.63;55.77;101233.44;4995138;28;45308;-77
2023/07/20 03:24:20;;;;;;;;;3.25;3.00;;;;;21.62;56.31;101234.44;4993452;28;45432;-77
2023/07/20 03:26:46;;;;;;;;;2.00;2.00;;;;;21.59;56.47;101238.22;4991381;28;45363;-77
2023/07/20 03:29:11;;;;;;;;;3.75;3.00;;;;;21.56;56.16;101235.72;4993215;28;46195;-77
2023/07/20 03:31:37;;;;;;;;;5.00;4.00;;;;;21.58;56.54;101235.59;4992513;28;45394;-77
2023/07/20 03:34:02;;;;;;;;;5.50;4.25;;;;;21.39;56.44;101203.44;4997701;28;45414;-77
2023/07/20 03:36:27;;;;;;;;;3.25;3.25;;;;;21.50;56.27;101233.44;4987023;28;45313;-77
2023/07/20 03:38:52;;;;;;;;;3.50;3.50;;;;;21.48;56.64;101227.22;4979431;28;45305;-77
2023/07/20 03:41:19;;;;;;;;;3.00;3.00;;;;;21.48;56.44;101229.09;4989640;28;45392;-77
2023/07/20 03:43:45;;;;;;;;;4.50;3.25;;;;;21.51;56.88;101234.31;4980660;28;45442;-77
2023/07/20 03:46:10;;;;;;;;;3.00;3.00;;;;;21.32;56.97;101211.13;4969970;28;46190;-77
2023/07/20 03:48:35;;;;;;;;;2.75;2.75;;;;;21.48;57.06;101232.66;4962034;28;47056;-77
2023/07/20 03:51:01;;;;;;;;;3.00;3.00;;;;;21.43;56.58;101227.56;4986681;28;45396;-77
2023/07/20 03:53:27;;;;;;;;;4.00;3.00;;;;;21.44;56.96;101234.69;4999277;28;45391;-77
2023/07/20 03:55:53;;;;;;;;;2.75;2.75;;;;;21.45;56.59;101243.72;5001698;28;45430;-77
2023/07/20 03:58:20;;;;;;;;;2.00;2.00;;;;;21.36;56.68;101219.94;4983293;28;46657;-76
2023/07/20 04:00:52;;;;;;;;;4.50;3.50;;;;;21.43;57.37;101232.09;4977242;28;45442;-76
2023/07/20 04:03:19;;;;;;;;;3.00;3.00;;;;;21.43;57.17;101232.97;4988571;28;45491;-76
2023/07/20 04:05:45;;;;;;;;;3.25;2.00;;;;;21.41;56.77;101237.63;4982392;28;45475;-76
2023/07/20 04:08:11;;;;;;;;;4.75;4.00;;;;;21.38;56.94;101224.25;4995665;28;46195;-76
2023/07/20 04:10:37;;;;;;;;;3.25;3.00;;;;;21.36;57.28;101230.78;4987500;28;45328;-76
2023/07/20 04:13:03;;;;;;;;;4.00;3.00;;;;;21.32;57.44;101230.16;4993527;28;45284;-77
2023/07/20 04:15:29;;;;;;;;;3.00;3.00;;;;;21.28;57.58;101225.88;4990049;28;45417;-77
2023/07/20 04:17:56;;;;;;;;;4.25;3.25;;;;;21.19;57.53;101213.81;4982334;28;45966;-77
2023/07/20 04:20:22;;;;;;;;;5.75;3.00;;;;;21.24;57.24;101224.38;4966258;28;45377;-77
2023/07/20 04:22:47;;;;;;;;;3.00;3.00;;;;;21.23;57.42;101226.22;5001526;28;45299;-77
2023/07/20 04:25:12;;;;;;;;;3.75;3.00;;;;;21.23;57.68;101228.06;4996434;28;45501;-77
2023/07/20 04:27:38;;;;;;;;;3.00;3.00;;;;;21.21;57.67;101230.00;4982387;28;46249;-77
2023/07/20 04:30:03;;;;;;;;;4.00;4.00;;;;;21.15;57.75;101217.75;4987040;28;48661;-77
2023/07/20 04:32:30;;;;;;;;;3.00;3.00;;;;;21.20;58.08;101228.25;4987595;28;45334;-77
2023/07/20 04:34:55;;;;;;;;;3.50;3.50;;;;;21.16;57.96;101226.75;4983281;28;45707;-76
2023/07/20 04:37:21;;;;;;;;;4.25;4.25;;;;;21.08;58.08;101208.28;4982356;28;45963;-76
2023/07/20 04:39:46;;;;;;;;;4.50;4.00;;;;;21.14;58.35;101220.56;4995075;28;45627;-77
2023/07/20 04:42:12;;;;;;;;;5.75;4.00;;;;;21.15;58.15;101225.00;4997425;28;45382;-77
2023/07/20 04:44:37;;;;;;;;;3.50;3.50;;;;;21.08;58.34;101220.03;5001964;28;45462;-76
2023/07/20 04:47:03;;;;;;;;;4.25;4.25;;;;;21.13;58.55;101224.25;4982286;28;45395;-77
2023/07/20 04:49:28;;;;;;;;;3.25;3.00;;;;;21.13;58.77;101225.09;4996538;28;45358;-77
2023/07/20 04:51:54;;;;;;;;;7.00;4.00;;;;;21.11;58.46;101221.63;4988122;28;45346;-77
2023/07/20 04:54:19;;;;;;;;;4.75;4.25;;;;;21.13;58.70;101227.81;5001089;28;45257;-77
2023/07/20 04:56:45;;;;;;;;;3.75;2.50;;;;;21.10;58.99;101220.78;4995019;28;46056;-77
2023/07/20 04:59:10;;;;;;;;;4.75;4.00;;;;;21.03;58.99;101214.03;4982022;28;45392;-77
2023/07/20 05:01:35;;;;;;;;;3.25;3.25;;;;;21.08;58.90;101222.72;4991984;28;45706;-77
2023/07/20 05:04:01;;;;;;;;;2.75;2.75;;;;;21.10;59.13;101231.63;4965211;28;47048;-77
2023/07/20 05:06:27;;;;;;;;;3.00;3.00;;;;;21.13;58.86;101232.38;4986043;28;46085;-77
2023/07/20 05:08:52;;;;;;;;;2.50;2.50;;;;;21.13;59.49;101226.97;4997601;28;45231;-77
2023/07/20 05:11:17;;;;;;;;;1.75;1.75;;;;;21.08;59.20;101222.72;4987912;28;45407;-77
2023/07/20 05:13:43;;;;;;;;;3.00;3.00;;;;;21.14;59.61;101236.84;4996581;28;45395;-77
2023/07/20 05:16:08;;;;;;;;;2.75;2.75;;;;;21.16;59.50;101234.91;4983432;28;45963;-77
2023/07/20 05:18:33;;;;;;;;;3.75;3.75;;;;;21.12;59.40;101227.94;4985067;28;52814;-76
2023/07/20 05:20:59;;;;;;;;;3.25;2.50;;;;;21.08;59.80;101225.44;5000122;28;45333;-77
2023/07/20 05:23:24;;;;;;;;;5.25;2.75;;;;;21.10;60.11;101228.06;5000831;28;45347;-77
2023/07/20 05:25:56;;;;;;;;;2.25;2.25;;;;;21.08;59.57;101232.69;5000250;28;45252;-77
2023/07/20 05:28:22;;;;;;;;;3.25;3.00;;;;;21.07;59.62;101226.41;4980318;28;45436;-77
2023/07/20 05:30:48;;;;;;;;;5.25;3.50;;;;;21.00;59.56;101224.22;4986038;28;45431;-77
2023/07/20 05:33:13;;;;;;;;;2.50;2.50;;;;;21.10;59.34;101241.63;4988789;28;45227;-77
2023/07/20 05:35:39;;;;;;;;;2.00;2.00;;;;;21.07;59.29;101239.13;4998291;28;45444;-77
2023/07/20 05:38:06;;;;;;;;;3.00;3.00;;;;;21.13;59.72;101240.53;4983366;28;45259;-77
2023/07/20 05:40:32;;;;;;;;;3.00;2.00;;;;;21.17;59.29;101242.94;4999404;28;45341;-77
2023/07/20 05:42:57;;;;;;;;;3.00;3.00;;;;;21.15;59.43;101241.28;5000785;28;45261;-77
2023/07/20 05:45:23;;;;;;;;;3.50;3.50;;;;;21.17;59.80;101251.09;4985513;28;51190;-77
2023/07/20 05:47:48;;;;;;;;;5.50;4.00;;;;;21.17;59.40;101244.78;4964021;28;45429;-77
2023/07/20 05:50:14;;;;;;;;;3.00;3.00;;;;;21.16;59.48;101234.91;4998938;28;45403;-77
2023/07/20 05:52:40;;;;;;;;;5.00;4.00;;;;;21.18;59.54;101235.66;4994598;28;45295;-77
2023/07/20 05:55:06;;;;;;;;;4.00;2.75;;;;;21.09;59.67;101224.44;4988538;28;45570;-77
2023/07/20 05:57:31;;;;;;;;;3.25;2.25;;;;;21.13;59.21;101219.69;4974946;28;45203;-77
2023/07/20 05:59:56;;;;;;;;;3.25;2.75;;;;;21.10;59.02;101209.06;4998085;28;45426;-77
2023/07/20 06:02:22;;;;;;;;;2.25;2.25;;;;;21.19;59.52;101230.13;5001108;28;45194;-77
2023/07/20 06:04:47;;;;;;;;;3.25;2.50;;;;;21.18;59.44;101228.38;4980097;28;47389;-76
2023/07/20 06:07:13;;;;;;;;;5.50;3.25;;;;;21.22;59.68;101234.47;4978911;28;45464;-77
2023/07/20 06:09:38;;;;;;;;;3.00;2.50;;;;;21.22;59.66;101229.91;4994689;28;45426;-77
2023/07/20 06:12:04;;;;;;;;;2.50;2.50;;;;;21.18;59.82;101220.22;4988280;28;46026;-75
2023/07/20 06:14:29;;;;;;;;;3.00;3.00;;;;;21.18;59.67;101219.38;4991339;28;46567;-77
2023/07/20 06:16:55;;;;;;;;;2.75;2.50;;;;;21.20;59.99;101222.84;4979589;28;45317;-77
2023/07/20 06:19:22;;;;;;;;;2.00;2.00;;;;;21.25;59.19;101234.25;4973383;28;45254;-76
2023/07/20 06:21:47;;;;;;;;;2.75;2.75;;;;;21.26;59.46;101236.84;4980217;28;45332;-77
2023/07/20 06:24:13;;;;;;;;;3.50;3.50;;;;;21.28;59.47;101228.59;4986879;28;46443;-77
2023/07/20 06:26:39;;;;;;;;;3.50;2.00;;;;;21.27;58.98;101235.03;4971964;28;45455;-76
2023/07/20 06:29:08;;;;;;;;;3.00;3.00;;;;;21.18;59.30;101208.50;4992063;28;45285;-77
2023/07/20 06:31:35;;;;;;;;;2.75;2.75;;;;;21.28;59.05;101234.91;4987434;28;45387;-77
2023/07/20 06:34:01;;;;;;;;;3.50;2.00;;;;;21.30;59.49;101232.09;4993914;28;46149;-76
2023/07/20 06:36:26;;;;;;;;;2.75;2.75;;;;;21.33;59.57;101231.00;4999550;28;45516;-76
2023/07/20 06:38:52;;;;;;;;;3.00;2.00;;;;;21.25;59.56;101221.56;4986210;28;45461;-77
2023/07/20 06:41:18;;;;;;;;;4.25;2.50;;;;;21.28;59.71;101223.16;4999087;28;45284;-77
2023/07/20 06:43:43;;;;;;;;;3.75;2.50;;;;;21.32;59.57;101226.53;4991120;28;46515;-77
2023/07/20 06:46:08;;;;;;;;;5.50;3.00;;;;;21.31;59.53;101228.38;4994376;28;53772;-77
2023/07/20 06:48:34;;;;;;;;;3.00;3.00;;;;;21.29;59.58;101231.22;4996672;28;45577;-76
2023/07/20 06:50:59;;;;;;;;;3.25;2.25;;;;;21.19;59.32;101211.13;4999535;28;45336;-76
2023/07/20 06:53:24;;;;;;;;;3.00;3.00;;;;;21.27;59.03;101222.31;4985949;28;56221;-77
2023/07/20 06:55:49;;;;;;;;;3.75;3.75;;;;;21.33;59.41;101231.88;4982246;28;46751;-76
2023/07/20 06:58:15;;;;;;;;;5.00;3.00;;;;;21.33;59.17;101229.16;4995492;28;45245;-77
2023/07/20 07:00:40;;;;;;;;;4.25;3.00;;;;;21.34;59.10;101222.75;4998932;28;45313;-76
2023/07/20 07:03:07;;;;;;;;;4.75;3.25;;;;;21.37;58.78;101221.69;4977532;28;48506;-76
2023/07/20 07:05:36;;;;;;;;;4.75;4.00;;;;;21.40;59.01;101224.16;4979833;28;45364;-76
2023/07/20 07:08:02;;;;;;;;;2.50;2.50;;;;;21.35;59.08;101215.47;4997734;28;45403;-77
2023/07/20 07:10:27;;;;;;;;;4.00;3.00;;;;;21.40;58.77;101208.75;4981581;28;45418;-77
2023/07/20 07:12:52;;;;;;;;;4.75;4.00;;;;;21.43;59.35;101208.53;4990389;28;45398;-76
2023/07/20 07:15:18;;;;;;;;;7.00;3.50;;;;;21.44;59.11;101204.81;4996940;28;45573;-77
2023/07/20 07:17:43;;;;;;;;;5.25;4.00;;;;;21.49;58.78;101212.69;4986918;28;46041;-76
2023/07/20 07:20:09;;;;;;;;;3.00;2.50;;;;;21.46;59.09;101202.88;4988474;28;45321;-76
2023/07/20 07:22:34;;;;;;;;;4.00;3.00;;;;;21.50;59.03;101213.53;4983050;28;45655;-77
2023/07/20 07:24:59;;;;;;;;;3.75;3.75;;;;;21.46;59.32;101216.44;4986859;28;45683;-76
2023/07/20 07:27:25;;;;;;;;;3.75;3.75;;;;;21.44;59.17;101203.97;4986081;28;45513;-77
2023/07/20 07:29:50;;;;;;;;;3.00;3.00;;;;;21.45;58.90;101203.88;4982976;28;45523;-76
2023/07/20 07:32:16;;;;;;;;;3.00;3.00;;;;;21.51;59.05;101213.44;4989767;28;45454;-76
2023/07/20 07:34:41;;;;;;;;;3.25;2.25;;;;;21.47;58.99;101201.06;4990647;28;45424;-76
2023/07/20 07:37:07;;;;;;;;;3.00;3.00;;;;;21.59;59.28;101215.63;4979018;28;45430;-77
2023/07/20 07:39:32;;;;;;;;;4.00;4.00;;;;;21.57;59.15;101212.16;4991447;28;45467;-77
2023/07/20 07:41:58;;;;;;;;;5.75;5.00;;;;;21.62;58.60;101215.41;4988509;28;46397;-77
2023/07/20 07:44:23;;;;;;;;;3.75;2.75;;;;;21.57;58.70;101213.00;4987586;28;45397;-77
2023/07/20 07:46:49;;;;;;;;;4.00;4.00;;;;;21.67;58.96;101223.19;4988831;28;45715;-77
2023/07/20 07:49:15;;;;;;;;;5.50;4.75;;;;;21.64;58.96;101222.44;4970212;28;46094;-76
2023/07/20 07:51:41;;;;;;;;;6.25;3.25;;;;;21.65;58.93;101226.03;4980801;28;45621;-77
2023/07/20 07:54:06;;;;;;;;;4.00;3.00;;;;;21.59;58.61;101204.75;4996606;28;45381;-77
2023/07/20 07:56:31;;;;;;;;;4.50;4.50;;;;;21.68;58.52;101217.66;4992196;28;45428;-77
2023/07/20 07:58:57;;;;;;;;;5.00;5.00;;;;;21.67;58.98;101209.63;4988837;28;45441;-76
2023/07/20 08:01:22;;;;;;;;;4.00;4.00;;;;;21.68;59.02;101214.94;4993181;28;45529;-76
2023/07/20 08:03:48;;;;;;;;;4.00;2.75;;;;;21.59;58.53;101189.31;4986257;28;45455;-76
2023/07/20 08:06:14;;;;;;;;;3.00;3.00;;;;;21.79;57.62;101212.34;4992042;28;45344;-77
2023/07/20 08:08:40;;;;;;;;;3.50;3.00;;;;;21.83;57.46;101208.44;4979686;28;45475;-77
2023/07/20 08:11:05;;;;;;;;;4.00;4.00;;;;;21.81;57.33;101193.19;4971369;28;47352;-77
2023/07/20 08:13:31;;;;;;;;;3.00;1.50;;;;;21.98;57.22;101216.44;4990276;28;45441;-77
2023/07/20 08:15:57;;;;;;;;;3.50;3.00;;;;;22.01;56.35;101208.91;4988275;28;45345;-77
2023/07/20 08:18:22;;;;;;;;;4.75;2.25;;;;;21.98;55.89;101192.81;4974338;28;45538;-77
2023/07/20 08:20:49;;;;;;;;;1.75;1.75;;;;;22.09;55.63;101207.50;4985590;28;50265;-77
2023/07/20 08:23:14;;;;;;;;;3.25;2.00;;;;;22.15;55.45;101207.03;4983056;28;45395;-76
2023/07/20 08:25:43;;;;;;;;;1.75;1.00;;;;;22.17;55.56;101200.50;4990590;28;45318;-77
2023/07/20 08:28:10;;;;;;;;;1.50;1.50;;;;;22.25;54.17;101209.94;4988892;28;45337;-77
2023/07/20 08:30:43;;;;;;;;;3.00;3.00;;;;;22.24;54.46;101208.22;4993464;28;45695;-77
2023/07/20 08:33:14;;;;;;;;;2.00;2.00;;;;;22.23;54.48;101188.28;4992236;28;45536;-76
2023/07/20 08:35:39;;;;;;;;;3.25;2.00;;;;;22.29;54.51;101192.47;4993318;28;45945;-77
2023/07/20 08:38:04;;;;;;;;;2.00;2.00;;;;;22.37;53.81;101196.34;4992738;28;45373;-77
2023/07/20 08:40:38;;;;;;;;;2.00;2.00;;;;;22.44;54.35;101185.88;4991439;28;45405;-76
2023/07/20 08:43:03;;;;;;;;;2.00;2.00;;;;;22.48;54.43;101181.91;4993051;28;45349;-77
2023/07/20 08:45:29;;;;;;;;;1.25;1.25;;;;;22.57;53.60;101192.13;4977354;28;45356;-77
2023/07/20 08:47:56;;;;;;;;;1.00;1.00;;;;;22.61;53.19;101191.88;4992646;28;45471;-77
2023/07/20 08:50:23;;;;;;;;;1.75;1.75;;;;;22.64;53.10;101188.94;4977905;28;47623;-76
2023/07/20 08:52:52;;;;;;;;;3.50;2.50;;;;;22.65;52.45;101179.75;4976906;28;45641;-77
2023/07/20 08:55:19;;;;;;;;;3.00;1.25;;;;;22.70;52.06;101185.72;4989586;28;45478;-77
2023/07/20 08:57:49;;;;;;;;;3.00;2.00;;;;;22.69;52.09;101181.28;4996815;28;45520;-77
2023/07/20 09:00:17;;;;;;;;;2.00;2.00;;;;;22.70;52.03;101189.34;4993592;28;45596;-77
2023/07/20 09:02:45;;;;;;;;;2.00;2.00;;;;;22.74;51.65;101184.50;4992743;28;45718;-77
2023/07/20 09:05:10;;;;;;;;;1.50;1.25;;;;;22.75;51.84;101180.78;4984157;28;45581;-77
2023/07/20 09:07:36;;;;;;;;;1.00;1.00;;;;;22.76;51.48;101174.38;4996395;28;45407;-77
2023/07/20 09:10:05;;;;;;;;;1.50;1.50;;;;;22.78;51.51;101172.41;4976105;28;45512;-76
2023/07/20 09:12:38;;;;;;;;;2.25;2.25;;;;;22.87;51.53;101182.59;4998864;28;45588;-77
2023/07/20 09:15:05;;;;;;;;;3.25;3.00;;;;;22.87;52.07;101176.25;4978324;28;45640;-77
2023/07/20 09:17:31;;;;;;;;;1.75;1.75;;;;;22.94;51.62;101181.09;4993891;28;45446;-77
2023/07/20 09:19:56;;;;;;;;;1.00;1.00;;;;;23.01;50.97;101178.78;4996271;28;48541;-77
2023/07/20 09:22:21;;;;;;;;;0.25;0.25;;;;;23.06;51.34;101181.16;4970208;28;45334;-76
2023/07/20 09:24:47;;;;;;;;;1.75;1.75;;;;;23.03;51.22;101162.31;4969796;28;53538;-76
2023/07/20 09:27:12;;;;;;;;;2.00;2.00;;;;;23.15;50.72;101185.88;4996304;28;45319;-77
2023/07/20 09:29:51;;;;;;;;;2.75;1.75;;;;;23.12;50.28;101170.69;4980173;28;46785;-77
2023/07/20 09:32:20;;;;;;;;;1.00;1.00;;;;;23.18;50.22;101166.59;4998240;28;45379;-77
2023/07/20 09:34:46;;;;;;;;;1.50;1.50;;;;;23.22;49.71;101179.00;4985555;28;45641;-77
2023/07/20 09:37:12;;;;;;;;;1.00;1.00;;;;;23.09;48.88;101149.13;4994977;28;45891;-76
2023/07/20 09:39:45;;;;;;;;;1.75;1.00;;;;;23.18;48.96;101163.88;4998599;28;45614;-76
2023/07/20 09:42:12;;;;;;;;;1.00;1.00;;;;;23.20;48.37;101169.19;4969528;28;45501;-77
2023/07/20 09:44:38;;;;;;;;;1.50;1.50;;;;;23.17;48.41;101163.97;4998655;28;45294;-77
2023/07/20 09:47:04;;;;;;;;;1.00;0.25;;;;;23.16;47.36;101168.56;4995897;28;45367;-77
2023/07/20 09:49:29;;;;;;;;;1.25;0.75;;;;;23.16;47.50;101165.84;4991236;28;45238;-76
2023/07/20 09:51:56;;;;;;;;;2.50;2.00;;;;;23.21;47.81;101165.50;4994762;28;46148;-76
2023/07/20 09:54:22;;;;;;;;;1.00;1.00;;;;;23.25;47.91;101162.38;4997283;28;45542;-76
2023/07/20 09:56:50;;;;;;;;;2.00;2.00;;;;;23.31;47.72;101158.31;4976176;28;45658;-76
2023/07/20 09:59:16;;;;;;;;;1.00;1.00;;;;;23.36;47.44;101160.69;4976885;28;46721;-75
2023/07/20 10:01:43;;;;;;;;;2.50;1.25;;;;;23.40;47.33;101156.72;4989063;28;45525;-76
2023/07/20 10:04:11;;;;;;;;;1.50;1.50;;;;;23.27;47.18;101135.03;4998240;28;45356;-77
2023/07/20 10:06:41;;;;;;;;;0.25;0.25;;;;;23.45;47.36;101154.47;4994713;28;45603;-76
2023/07/20 10:09:09;;;;;;;;;1.00;1.00;;;;;23.41;47.13;101144.84;4998700;28;45672;-77
2023/07/20 10:11:39;;;;;;;;;2.00;2.00;;;;;23.51;47.17;101154.00;4987081;28;45375;-76
2023/07/20 10:14:10;;;;;;;;;1.50;1.00;;;;;23.51;46.83;101144.97;4987910;28;45323;-76
2023/07/20 10:16:39;;;;;;;;;1.00;1.00;;;;;23.51;46.82;101137.66;4991415;28;45478;-76
2023/07/20 10:19:13;;;;;;;;;1.00;1.00;;;;;23.59;46.74;101148.81;4982190;28;45442;-77
2023/07/20 10:21:42;;;;;;;;;3.00;2.00;;;;;23.54;46.27;101131.06;4992317;28;45412;-76
2023/07/20 10:24:09;;;;;;;;;3.00;3.00;;;;;23.58;46.10;101133.44;4976348;28;45389;-76
2023/07/20 10:26:35;;;;;;;;;2.00;2.00;;;;;23.64;45.99;101130.22;4985056;28;45376;-76
2023/07/20 10:29:03;;;;;;;;;1.00;1.00;;;;;23.64;45.88;101129.38;4989177;28;45329;-77
2023/07/20 10:31:28;;;;;;;;;1.00;1.00;;;;;23.71;46.27;101130.59;4991878;28;45385;-76
2023/07/20 10:33:56;;;;;;;;;1.25;1.25;;;;;23.65;46.11;101110.13;4996431;28;45328;-76
2023/07/20 10:36:27;;;;;;;;;1.00;1.00;;;;;23.75;45.93;101121.16;4992568;28;45411;-77
2023/07/20 10:38:55;;;;;;;;;0.00;0.00;;;;;23.85;45.21;101119.41;4991148;28;45493;-77
2023/07/20 10:41:22;;;;;;;;;1.25;1.00;;;;;23.88;44.58;101115.59;4990132;28;45722;-77
2023/07/20 10:43:49;;;;;;;;;0.00;0.00;;;;;23.90;44.38;101110.88;4987099;28;46375;-77
2023/07/20 10:46:14;;;;;;;;;2.00;0.00;;;;;23.89;43.38;101116.44;4991985;28;45471;-77
2023/07/20 10:48:59;;;;;;;;;0.75;0.75;;;;;23.88;43.50;101106.56;4990725;28;45333;-76
2023/07/20 10:51:24;;;;;;;;;1.00;1.00;;;;;23.88;43.47;101109.28;4965423;28;45478;-77
2023/07/20 10:53:50;;;;;;;;;1.25;1.25;;;;;23.94;43.84;101106.03;4982841;28;45349;-76
2023/07/20 10:56:21;;;;;;;;;1.25;1.00;;;;;23.98;43.85;101112.97;4993460;28;45345;-76
2023/07/20 10:58:46;;;;;;;;;0.00;0.00;;;;;23.99;43.26;101106.50;4994370;28;46276;-76
2023/07/20 11:01:16;;;;;;;;;1.00;1.00;;;;;23.98;43.61;101107.53;4991191;28;45608;-76
2023/07/20 11:03:43;;;;;;;;;1.50;1.00;;;;;24.02;43.39;101106.25;4994912;28;45351;-77
2023/07/20 11:06:36;;;;;;;;;1.00;1.00;;;;;24.04;43.60;101107.00;4987783;28;45538;-76
2023/07/20 11:09:16;;;;;;;;;3.00;2.00;;;;;24.00;43.33;101095.47;4991769;28;45843;-76
2023/07/20 11:11:43;;;;;;;;;1.25;1.25;;;;;24.11;42.90;101112.81;4983617;28;45584;-76
2023/07/20 11:14:19;;;;;;;;;2.00;2.00;;;;;24.13;42.55;101105.38;4970233;28;46199;-76
2023/07/20 11:16:47;;;;;;;;;2.00;0.25;;;;;24.15;42.68;101103.38;4987734;28;45566;-75
2023/07/20 11:19:26;;;;;;;;;1.00;1.00;;;;;24.13;42.90;101091.72;4988401;28;45849;-77
2023/07/20 11:21:53;;;;;;;;;0.75;0.75;;;;;24.25;42.21;101096.13;4993720;28;45985;-77